createdAt,value
2023-03-22T00:00:53.898Z,130.80
2023-03-22T00:03:20.984Z,131.75
2023-03-22T00:05:48.012Z,138.10
2023-03-22T00:08:15.709Z,139.60
2023-03-22T00:10:42.738Z,130.90
2023-03-22T00:13:10.253Z,109.80
2023-03-22T00:15:37.377Z,104.22
2023-03-22T00:18:05.750Z,116.35
2023-03-22T00:20:38.223Z,91.18
2023-03-22T00:23:06.549Z,113.57
2023-03-22T00:25:33.614Z,159.98
2023-03-22T00:28:00.640Z,159.32
2023-03-22T00:30:27.708Z,204.18
2023-03-22T00:32:54.750Z,174.52
2023-03-22T00:35:21.820Z,135.75
2023-03-22T00:37:51.444Z,138.63
2023-03-22T00:40:18.646Z,145.80
2023-03-22T00:42:45.667Z,133.75
2023-03-22T00:45:12.833Z,147.30
2023-03-22T00:47:40.202Z,133.98
2023-03-22T00:50:07.573Z,148.95
2023-03-22T00:52:34.582Z,161.75
2023-03-22T00:55:01.604Z,152.48
2023-03-22T00:57:28.623Z,136.18
2023-03-22T00:59:55.776Z,174.25
2023-03-22T01:02:29.503Z,158.15
2023-03-22T01:04:56.652Z,165.80
2023-03-22T01:07:24.068Z,152.27
2023-03-22T01:09:51.477Z,161.68
2023-03-22T01:12:18.775Z,150.07
2023-03-22T01:14:45.984Z,154.35
2023-03-22T01:17:13.048Z,164.63
2023-03-22T01:19:40.472Z,152.45
2023-03-22T01:22:07.625Z,156.40
2023-03-22T01:24:34.779Z,158.25
2023-03-22T01:27:02.040Z,161.27
2023-03-22T01:29:29.114Z,157.35
2023-03-22T01:31:56.286Z,162.70
2023-03-22T01:34:23.404Z,171.55
2023-03-22T01:36:50.556Z,154.00
2023-03-22T01:39:17.641Z,157.88
2023-03-22T01:41:44.712Z,164.55
2023-03-22T01:44:13.218Z,159.98
2023-03-22T01:46:40.868Z,161.70
2023-03-22T01:49:09.335Z,156.55
2023-03-22T01:51:36.432Z,152.85
2023-03-22T01:54:04.218Z,162.75
2023-03-22T01:56:32.252Z,146.75
2023-03-22T01:58:59.410Z,151.20
2023-03-22T02:01:27.263Z,144.50
2023-03-22T02:04:02.730Z,155.85
2023-03-22T02:06:29.976Z,144.45
2023-03-22T02:08:58.344Z,147.38
2023-03-22T02:11:32.811Z,149.00
2023-03-22T02:14:12.174Z,154.50
2023-03-22T02:16:45.104Z,140.55
2023-03-22T02:19:24.236Z,159.57
2023-03-22T02:22:09.823Z,163.43
2023-03-22T02:24:55.617Z,160.48
2023-03-22T02:27:28.973Z,149.82
2023-03-22T02:30:14.557Z,155.10
2023-03-22T02:32:56.797Z,151.55
2023-03-22T02:35:26.666Z,155.48
2023-03-22T02:37:56.563Z,318.38
2023-03-22T02:40:33.767Z,215.80
2023-03-22T02:43:07.030Z,190.40
2023-03-22T02:45:46.130Z,202.27
2023-03-22T02:48:14.562Z,265.05
2023-03-22T02:51:00.354Z,472.25
2023-03-22T02:53:31.576Z,533.05
2023-03-22T02:56:02.712Z,526.22
2023-03-22T02:58:33.044Z,663.72
2023-03-22T03:01:01.770Z,483.95
2023-03-22T03:03:30.113Z,527.70
2023-03-22T03:06:02.267Z,395.20
2023-03-22T03:08:29.318Z,615.35
2023-03-22T03:10:56.424Z,529.42
2023-03-22T03:13:23.449Z,610.47
2023-03-22T03:15:52.567Z,497.50
2023-03-22T03:18:38.213Z,508.02
2023-03-22T03:21:17.889Z,444.98
2023-03-22T03:23:49.610Z,580.60
2023-03-22T03:26:25.937Z,628.70
2023-03-22T03:28:53.705Z,668.88
2023-03-22T03:31:38.109Z,561.45
2023-03-22T03:34:10.527Z,553.20
2023-03-22T03:36:37.998Z,486.10
2023-03-22T03:39:05.649Z,452.38
2023-03-22T03:41:32.718Z,392.33
2023-03-22T03:43:59.792Z,321.48
2023-03-22T03:46:27.777Z,221.65
2023-03-22T03:48:54.887Z,388.33
2023-03-22T03:51:21.930Z,445.80
2023-03-22T03:53:49.170Z,402.17
2023-03-22T03:56:16.232Z,564.00
2023-03-22T03:58:43.335Z,511.73
2023-03-22T04:01:10.710Z,443.92
2023-03-22T04:03:37.860Z,374.48
2023-03-22T04:06:04.932Z,409.40
2023-03-22T04:08:31.985Z,362.38
2023-03-22T04:10:59.020Z,297.85
2023-03-22T04:13:26.109Z,157.27
2023-03-22T04:15:53.914Z,230.40
2023-03-22T04:18:21.231Z,293.30
2023-03-22T04:20:49.432Z,166.73
2023-03-22T04:23:16.635Z,217.07
2023-03-22T04:25:49.918Z,127.22
2023-03-22T04:28:19.801Z,139.23
2023-03-22T04:30:50.971Z,121.53
2023-03-22T04:33:18.092Z,129.68
2023-03-22T04:35:47.942Z,131.45
2023-03-22T04:38:15.075Z,137.02
2023-03-22T04:40:46.650Z,136.82
2023-03-22T04:43:14.082Z,135.45
2023-03-22T04:45:42.049Z,124.82
2023-03-22T04:48:10.544Z,114.38
2023-03-22T04:50:38.333Z,101.13
2023-03-22T04:53:05.598Z,115.88
2023-03-22T04:55:34.106Z,210.02
2023-03-22T04:58:01.133Z,209.95
2023-03-22T05:00:30.303Z,156.30
2023-03-22T05:02:57.827Z,364.65
2023-03-22T05:05:25.002Z,216.93
2023-03-22T05:07:52.163Z,124.15
2023-03-22T05:10:19.330Z,107.38
2023-03-22T05:12:46.748Z,107.93
2023-03-22T05:15:14.196Z,99.35
2023-03-22T05:17:41.250Z,105.60
2023-03-22T05:20:10.134Z,109.45
2023-03-22T05:22:40.963Z,111.25
2023-03-22T05:25:08.868Z,100.47
2023-03-22T05:27:38.867Z,99.53
2023-03-22T05:30:06.416Z,102.43
2023-03-22T05:32:33.619Z,103.20
2023-03-22T05:35:04.712Z,104.57
2023-03-22T05:37:32.110Z,101.22
2023-03-22T05:39:59.240Z,100.60
2023-03-22T05:42:26.394Z,97.13
2023-03-22T05:44:53.459Z,94.45
2023-03-22T05:47:20.538Z,98.30
2023-03-22T05:49:47.560Z,97.82
2023-03-22T05:52:14.576Z,91.93
2023-03-22T05:54:41.638Z,94.90
2023-03-22T05:57:08.705Z,100.07
2023-03-22T05:59:36.423Z,91.63
2023-03-22T06:02:03.538Z,92.20
2023-03-22T06:04:30.664Z,102.70
2023-03-22T06:06:57.800Z,101.85
2023-03-22T06:09:24.822Z,92.45
2023-03-22T06:11:51.983Z,103.05
2023-03-22T06:14:19.000Z,108.00
2023-03-22T06:16:46.340Z,108.25
2023-03-22T06:19:13.412Z,107.07
2023-03-22T06:21:40.455Z,100.00
2023-03-22T06:24:07.604Z,104.35
2023-03-22T06:26:34.657Z,99.78
2023-03-22T06:29:03.563Z,108.55
2023-03-22T06:31:30.784Z,106.25
2023-03-22T06:33:57.844Z,102.15
2023-03-22T06:36:24.860Z,112.70
2023-03-22T06:38:52.017Z,106.25
2023-03-22T06:41:19.088Z,105.65
2023-03-22T06:43:46.236Z,113.43
2023-03-22T06:46:13.982Z,115.55
2023-03-22T06:48:41.142Z,101.05
2023-03-22T06:51:08.497Z,103.15
2023-03-22T06:53:35.647Z,93.90
2023-03-22T06:56:02.802Z,89.70
2023-03-22T06:58:29.850Z,83.85
2023-03-22T07:00:58.155Z,84.28
2023-03-22T07:03:25.340Z,73.18
2023-03-22T07:05:52.374Z,67.10
2023-03-22T07:08:19.404Z,55.50
2023-03-22T07:10:50.193Z,46.75
2023-03-22T07:13:17.293Z,41.40
2023-03-22T07:15:44.400Z,30.77
2023-03-22T07:18:11.573Z,27.88
2023-03-22T07:20:41.424Z,29.52
2023-03-22T07:23:10.665Z,25.52
2023-03-22T07:25:37.852Z,24.40
2023-03-22T07:28:06.891Z,20.90
2023-03-22T07:30:37.747Z,17.73
2023-03-22T07:33:05.753Z,20.83
2023-03-22T07:35:32.763Z,18.33
2023-03-22T07:38:00.801Z,18.40
2023-03-22T07:40:28.043Z,15.43
2023-03-22T07:42:55.964Z,16.08
2023-03-22T07:45:23.702Z,16.30
2023-03-22T07:47:50.927Z,16.60
2023-03-22T07:50:18.115Z,15.27
2023-03-22T07:52:45.546Z,15.68
2023-03-22T07:55:13.201Z,18.35
2023-03-22T07:57:40.674Z,15.00
2023-03-22T08:00:09.845Z,14.02
2023-03-22T08:02:37.746Z,14.25
2023-03-22T08:05:05.424Z,12.00
2023-03-22T08:07:32.796Z,15.10
2023-03-22T08:09:59.954Z,14.65
2023-03-22T08:12:28.044Z,15.27
2023-03-22T08:14:55.141Z,14.95
2023-03-22T08:17:22.279Z,15.70
2023-03-22T08:19:50.001Z,18.67
2023-03-22T08:22:17.095Z,14.23
2023-03-22T08:24:44.157Z,16.75
2023-03-22T08:27:12.217Z,17.55
2023-03-22T08:29:39.326Z,13.30
2023-03-22T08:32:06.434Z,13.90
2023-03-22T08:34:37.136Z,14.85
2023-03-22T08:37:07.372Z,14.73
2023-03-22T08:39:34.610Z,12.45
2023-03-22T08:42:01.716Z,13.05
2023-03-22T08:44:28.821Z,12.40
2023-03-22T08:46:55.947Z,15.73
2023-03-22T08:49:23.066Z,15.60
2023-03-22T08:51:50.325Z,13.05
2023-03-22T08:54:17.434Z,11.65
2023-03-22T08:56:44.620Z,9.95
2023-03-22T08:59:11.918Z,15.57
2023-03-22T09:01:39.137Z,13.68
2023-03-22T09:04:08.379Z,9.45
2023-03-22T09:06:37.447Z,9.48
2023-03-22T09:09:04.631Z,6.43
2023-03-22T09:11:31.677Z,10.48
2023-03-22T09:13:58.747Z,11.80
2023-03-22T09:16:25.956Z,13.23
2023-03-22T09:18:53.202Z,11.27
2023-03-22T09:21:21.785Z,7.68
2023-03-22T09:23:50.362Z,13.30
2023-03-22T09:26:17.617Z,10.02
2023-03-22T09:28:46.698Z,8.35
2023-03-22T09:31:13.990Z,7.10
2023-03-22T09:33:41.852Z,8.88
2023-03-22T09:36:09.631Z,8.50
2023-03-22T09:38:36.852Z,6.90
2023-03-22T09:41:05.420Z,8.82
2023-03-22T09:43:39.090Z,6.72
2023-03-22T09:46:07.290Z,8.15
2023-03-22T09:48:34.801Z,6.85
2023-03-22T09:51:02.194Z,11.45
2023-03-22T09:53:29.370Z,5.35
2023-03-22T09:56:16.814Z,5.50
2023-03-22T09:58:46.516Z,4.60
2023-03-22T10:01:13.690Z,6.95
2023-03-22T10:03:49.887Z,6.70
2023-03-22T10:06:21.183Z,5.00
2023-03-22T10:09:04.405Z,6.45
2023-03-22T10:11:37.454Z,5.43
2023-03-22T10:14:16.618Z,7.32
2023-03-22T10:16:43.749Z,6.28
2023-03-22T10:19:17.205Z,4.35
2023-03-22T10:21:44.233Z,5.53
2023-03-22T10:24:18.365Z,3.38
2023-03-22T10:26:48.358Z,4.97
2023-03-22T10:29:24.610Z,7.30
2023-03-22T10:31:51.802Z,3.45
2023-03-22T10:34:29.319Z,3.67
2023-03-22T10:36:56.437Z,5.72
2023-03-22T10:39:23.520Z,4.50
2023-03-22T10:41:50.564Z,4.32
2023-03-22T10:44:18.541Z,4.85
2023-03-22T10:46:45.757Z,4.85
2023-03-22T10:49:14.085Z,3.92
2023-03-22T10:51:41.727Z,3.70
2023-03-22T10:54:12.723Z,4.20
2023-03-22T10:56:39.758Z,3.17
2023-03-22T10:59:06.812Z,5.15
2023-03-22T11:01:36.877Z,6.63
2023-03-22T11:04:04.023Z,3.47
2023-03-22T11:06:32.944Z,4.55
2023-03-22T11:09:01.378Z,4.65
2023-03-22T11:11:32.037Z,2.58
2023-03-22T11:14:15.219Z,3.15
2023-03-22T11:16:49.456Z,4.63
2023-03-22T11:19:19.054Z,3.47
2023-03-22T11:21:46.136Z,5.77
2023-03-22T11:24:13.638Z,6.50
2023-03-22T11:26:41.878Z,4.03
2023-03-22T11:29:12.136Z,4.05
2023-03-22T11:31:56.278Z,5.75
2023-03-22T11:34:24.198Z,4.53
2023-03-22T11:36:56.983Z,5.15
2023-03-22T11:39:25.935Z,5.00
2023-03-22T11:41:53.264Z,6.25
2023-03-22T11:44:21.666Z,2.75
2023-03-22T11:46:58.237Z,3.22
2023-03-22T11:49:26.984Z,3.53
2023-03-22T11:51:54.653Z,3.58
2023-03-22T11:54:31.919Z,2.85
2023-03-22T11:57:01.149Z,3.42
2023-03-22T11:59:30.315Z,3.38
2023-03-22T12:02:24.042Z,3.78
2023-03-22T12:04:52.947Z,3.38
2023-03-22T12:07:24.630Z,4.60
2023-03-22T12:09:53.596Z,3.50
2023-03-22T12:12:23.031Z,3.03
2023-03-22T12:14:53.279Z,2.20
2023-03-22T12:19:55.861Z,3.28
2023-03-22T12:22:30.742Z,3.58
2023-03-22T12:24:57.899Z,3.45
2023-03-22T12:27:27.882Z,2.40
2023-03-22T12:29:56.357Z,4.15
2023-03-22T12:32:25.772Z,2.03
2023-03-22T12:35:01.362Z,4.17
2023-03-22T12:37:36.549Z,3.05
2023-03-22T12:40:16.578Z,3.25
2023-03-22T12:42:51.129Z,3.97
2023-03-22T12:45:19.514Z,2.50
2023-03-22T12:47:47.714Z,4.78
2023-03-22T12:50:18.718Z,4.55
2023-03-22T12:52:49.620Z,2.78
2023-03-22T12:55:19.719Z,5.68
2023-03-22T12:57:51.231Z,3.90
2023-03-22T13:00:18.472Z,2.50
2023-03-22T13:02:58.135Z,4.15
2023-03-22T13:05:27.501Z,2.20
2023-03-22T13:07:54.999Z,3.90
2023-03-22T13:10:31.698Z,3.17
2023-03-22T13:13:17.050Z,2.88
2023-03-22T13:16:22.884Z,2.45
2023-03-22T13:18:50.188Z,4.05
2023-03-22T13:21:30.338Z,2.67
2023-03-22T13:24:05.058Z,2.83
2023-03-22T13:26:52.815Z,2.55
2023-03-22T13:29:21.008Z,3.53
2023-03-22T13:31:54.590Z,1.58
2023-03-22T13:34:22.669Z,1.98
2023-03-22T13:36:55.107Z,2.75
2023-03-22T13:39:25.152Z,2.63
2023-03-22T13:42:02.796Z,2.05
2023-03-22T13:44:37.176Z,2.90
2023-03-22T13:47:04.383Z,1.90
2023-03-22T13:49:31.613Z,2.85
2023-03-22T13:51:59.571Z,2.13
2023-03-22T13:54:28.630Z,5.88
2023-03-22T13:57:00.939Z,5.40
2023-03-22T13:59:29.598Z,3.25
2023-03-22T14:02:12.081Z,3.67
2023-03-22T14:04:40.732Z,1.25
2023-03-22T14:07:11.171Z,2.13
2023-03-22T14:09:45.006Z,2.03
2023-03-22T14:12:32.410Z,2.55
2023-03-22T14:15:02.421Z,2.08
2023-03-22T14:17:38.498Z,1.83
2023-03-22T14:20:15.322Z,2.45
